Birch Beach, Minnesota
Current Conditions -  °F | °C
As of 7:53 AM on Tuesday 21 Oct 2014 (Local Time) from KBDE Reporting Station
Clear Clear  
Wind Chill: 30°   Ceiling: Unl
Heat Index: 36°   Visibility: 10mi
Dew Point: 33°   Wind: 7mph
Humidity: 89%   Direction: 130°SE
Pressure: 30.14"   Gusts: NA
Location:  48.7484°N, 94.9438°W
Report Text: KBDE 211253Z AUTO 13006KT 10SM CLR 02/01 A3014 RMK AO2 SLP218 T00220006 TSNO
Loading
Personal Weather Stations






























Interactive Weather Map
Tropical Storm Tracking
New forecast layout! Learn more

10-Day Weather Forecast

Advertisements
Track Severe Weather on mobile